sensor_id;sensor_type;location;lat;lon;timestamp;P1;durP1;ratioP1;P2;durP2;ratioP2
52180;SDS011;38158;53.338;6.514;2023-02-28T00:00:27;7.28;;;1.58;;
52180;SDS011;38158;53.338;6.514;2023-02-28T00:02:53;9.60;;;1.48;;
52180;SDS011;38158;53.338;6.514;2023-02-28T00:05:19;5.40;;;0.98;;
52180;SDS011;38158;53.338;6.514;2023-02-28T00:07:47;10.13;;;1.23;;
52180;SDS011;38158;53.338;6.514;2023-02-28T00:10:15;7.83;;;1.23;;
52180;SDS011;38158;53.338;6.514;2023-02-28T00:12:49;5.25;;;1.20;;
52180;SDS011;38158;53.338;6.514;2023-02-28T00:15:16;6.97;;;1.10;;
52180;SDS011;38158;53.338;6.514;2023-02-28T00:17:42;6.68;;;1.27;;
52180;SDS011;38158;53.338;6.514;2023-02-28T00:20:09;10.18;;;1.30;;
52180;SDS011;38158;53.338;6.514;2023-02-28T00:22:39;4.50;;;1.10;;
52180;SDS011;38158;53.338;6.514;2023-02-28T00:25:07;6.78;;;1.25;;
52180;SDS011;38158;53.338;6.514;2023-02-28T00:27:35;6.43;;;1.20;;
52180;SDS011;38158;53.338;6.514;2023-02-28T00:30:02;9.38;;;1.60;;
52180;SDS011;38158;53.338;6.514;2023-02-28T00:32:28;4.38;;;1.33;;
52180;SDS011;38158;53.338;6.514;2023-02-28T00:34:54;7.20;;;1.33;;
52180;SDS011;38158;53.338;6.514;2023-02-28T00:37:20;5.78;;;1.33;;
52180;SDS011;38158;53.338;6.514;2023-02-28T00:39:46;8.60;;;0.93;;
52180;SDS011;38158;53.338;6.514;2023-02-28T00:42:12;6.88;;;1.17;;
52180;SDS011;38158;53.338;6.514;2023-02-28T00:44:38;4.65;;;1.00;;
52180;SDS011;38158;53.338;6.514;2023-02-28T00:47:03;13.55;;;1.55;;
52180;SDS011;38158;53.338;6.514;2023-02-28T00:49:29;5.50;;;1.30;;
52180;SDS011;38158;53.338;6.514;2023-02-28T00:51:55;10.90;;;2.33;;
52180;SDS011;38158;53.338;6.514;2023-02-28T00:54:21;6.78;;;1.30;;
52180;SDS011;38158;53.338;6.514;2023-02-28T00:56:48;8.38;;;1.20;;
52180;SDS011;38158;53.338;6.514;2023-02-28T00:59:15;6.05;;;1.17;;
52180;SDS011;38158;53.338;6.514;2023-02-28T01:01:42;12.90;;;1.50;;
52180;SDS011;38158;53.338;6.514;2023-02-28T01:04:08;8.90;;;1.27;;
52180;SDS011;38158;53.338;6.514;2023-02-28T01:06:34;4.07;;;1.33;;
52180;SDS011;38158;53.338;6.514;2023-02-28T01:09:01;14.68;;;1.50;;
52180;SDS011;38158;53.338;6.514;2023-02-28T01:11:27;9.10;;;1.50;;
52180;SDS011;38158;53.338;6.514;2023-02-28T01:13:53;6.95;;;1.20;;
52180;SDS011;38158;53.338;6.514;2023-02-28T01:16:19;8.77;;;1.20;;
52180;SDS011;38158;53.338;6.514;2023-02-28T01:18:44;8.65;;;1.75;;
52180;SDS011;38158;53.338;6.514;2023-02-28T01:21:11;7.78;;;1.13;;
52180;SDS011;38158;53.338;6.514;2023-02-28T01:23:40;4.85;;;1.08;;
52180;SDS011;38158;53.338;6.514;2023-02-28T01:26:13;10.05;;;1.10;;
52180;SDS011;38158;53.338;6.514;2023-02-28T01:28:41;9.57;;;1.63;;
52180;SDS011;38158;53.338;6.514;2023-02-28T01:31:07;6.93;;;1.10;;
52180;SDS011;38158;53.338;6.514;2023-02-28T01:33:33;8.27;;;1.60;;
52180;SDS011;38158;53.338;6.514;2023-02-28T01:36:00;6.32;;;1.15;;
52180;SDS011;38158;53.338;6.514;2023-02-28T01:38:27;11.95;;;1.40;;
52180;SDS011;38158;53.338;6.514;2023-02-28T01:40:53;8.05;;;1.77;;
52180;SDS011;38158;53.338;6.514;2023-02-28T01:43:26;8.27;;;0.90;;
52180;SDS011;38158;53.338;6.514;2023-02-28T01:45:58;7.93;;;1.10;;
52180;SDS011;38158;53.338;6.514;2023-02-28T01:48:34;13.68;;;1.52;;
52180;SDS011;38158;53.338;6.514;2023-02-28T01:51:05;17.63;;;1.95;;
52180;SDS011;38158;53.338;6.514;2023-02-28T01:53:37;3.90;;;1.13;;
52180;SDS011;38158;53.338;6.514;2023-02-28T01:56:09;9.27;;;1.77;;
52180;SDS011;38158;53.338;6.514;2023-02-28T01:58:37;6.15;;;1.45;;
52180;SDS011;38158;53.338;6.514;2023-02-28T02:01:03;4.80;;;1.00;;
52180;SDS011;38158;53.338;6.514;2023-02-28T02:03:29;5.80;;;1.13;;
52180;SDS011;38158;53.338;6.514;2023-02-28T02:05:56;10.60;;;1.17;;
52180;SDS011;38158;53.338;6.514;2023-02-28T02:08:25;5.70;;;1.02;;
52180;SDS011;38158;53.338;6.514;2023-02-28T02:10:59;8.15;;;1.45;;
52180;SDS011;38158;53.338;6.514;2023-02-28T02:33:29;9.65;;;2.03;;
52180;SDS011;38158;53.338;6.514;2023-02-28T02:41:27;5.40;;;1.40;;
52180;SDS011;38158;53.338;6.514;2023-02-28T02:44:10;8.68;;;1.10;;
52180;SDS011;38158;53.338;6.514;2023-02-28T02:46:44;9.07;;;1.30;;
52180;SDS011;38158;53.338;6.514;2023-02-28T02:49:19;6.30;;;1.20;;
52180;SDS011;38158;53.338;6.514;2023-02-28T02:51:49;12.00;;;1.33;;
52180;SDS011;38158;53.338;6.514;2023-02-28T02:54:24;11.15;;;1.60;;
52180;SDS011;38158;53.338;6.514;2023-02-28T02:56:53;7.15;;;1.17;;
52180;SDS011;38158;53.338;6.514;2023-02-28T02:59:25;11.95;;;1.27;;
52180;SDS011;38158;53.338;6.514;2023-02-28T03:01:54;5.95;;;0.95;;
52180;SDS011;38158;53.338;6.514;2023-02-28T03:04:23;7.50;;;1.38;;
52180;SDS011;38158;53.338;6.514;2023-02-28T03:06:52;8.38;;;1.27;;
52180;SDS011;38158;53.338;6.514;2023-02-28T03:09:23;8.38;;;1.77;;
52180;SDS011;38158;53.338;6.514;2023-02-28T03:11:50;10.23;;;1.40;;
52180;SDS011;38158;53.338;6.514;2023-02-28T03:14:31;6.55;;;1.23;;
52180;SDS011;38158;53.338;6.514;2023-02-28T03:20:14;7.88;;;1.33;;
52180;SDS011;38158;53.338;6.514;2023-02-28T03:28:31;6.05;;;0.90;;
52180;SDS011;38158;53.338;6.514;2023-02-28T03:31:17;7.13;;;1.00;;
52180;SDS011;38158;53.338;6.514;2023-02-28T03:33:50;5.97;;;1.05;;
52180;SDS011;38158;53.338;6.514;2023-02-28T03:36:28;6.45;;;1.38;;
52180;SDS011;38158;53.338;6.514;2023-02-28T03:39:00;7.65;;;1.77;;
52180;SDS011;38158;53.338;6.514;2023-02-28T03:41:44;5.43;;;1.00;;
52180;SDS011;38158;53.338;6.514;2023-02-28T03:44:23;6.97;;;1.23;;
52180;SDS011;38158;53.338;6.514;2023-02-28T03:46:54;8.73;;;0.90;;
52180;SDS011;38158;53.338;6.514;2023-02-28T03:49:30;8.55;;;1.30;;
52180;SDS011;38158;53.338;6.514;2023-02-28T03:52:02;6.68;;;1.10;;
52180;SDS011;38158;53.338;6.514;2023-02-28T03:54:31;5.55;;;1.00;;
52180;SDS011;38158;53.338;6.514;2023-02-28T03:59:54;5.63;;;1.05;;
52180;SDS011;38158;53.338;6.514;2023-02-28T04:02:24;5.00;;;1.15;;
52180;SDS011;38158;53.338;6.514;2023-02-28T04:04:49;6.97;;;1.40;;
52180;SDS011;38158;53.338;6.514;2023-02-28T04:07:16;6.30;;;1.33;;
52180;SDS011;38158;53.338;6.514;2023-02-28T04:09:42;5.93;;;1.75;;
52180;SDS011;38158;53.338;6.514;2023-02-28T04:12:08;6.28;;;1.05;;
52180;SDS011;38158;53.338;6.514;2023-02-28T04:14:34;5.78;;;1.50;;
52180;SDS011;38158;53.338;6.514;2023-02-28T04:17:00;12.75;;;1.75;;
52180;SDS011;38158;53.338;6.514;2023-02-28T04:19:25;8.57;;;1.63;;
52180;SDS011;38158;53.338;6.514;2023-02-28T04:21:52;9.80;;;1.67;;
52180;SDS011;38158;53.338;6.514;2023-02-28T04:24:22;8.75;;;1.27;;
52180;SDS011;38158;53.338;6.514;2023-02-28T04:26:51;8.45;;;1.67;;
52180;SDS011;38158;53.338;6.514;2023-02-28T04:29:23;6.57;;;1.45;;
52180;SDS011;38158;53.338;6.514;2023-02-28T04:31:50;10.48;;;1.77;;
52180;SDS011;38158;53.338;6.514;2023-02-28T04:36:44;7.35;;;1.42;;
52180;SDS011;38158;53.338;6.514;2023-02-28T04:39:11;7.73;;;1.50;;
52180;SDS011;38158;53.338;6.514;2023-02-28T04:41:37;6.30;;;2.95;;
52180;SDS011;38158;53.338;6.514;2023-02-28T04:44:02;8.60;;;3.40;;
52180;SDS011;38158;53.338;6.514;2023-02-28T04:46:28;12.57;;;5.13;;
52180;SDS011;38158;53.338;6.514;2023-02-28T04:48:55;12.13;;;6.90;;
52180;SDS011;38158;53.338;6.514;2023-02-28T04:51:21;14.43;;;7.50;;
52180;SDS011;38158;53.338;6.514;2023-02-28T04:53:47;11.98;;;7.68;;
52180;SDS011;38158;53.338;6.514;2023-02-28T04:56:13;15.75;;;9.13;;
52180;SDS011;38158;53.338;6.514;2023-02-28T04:58:40;14.18;;;8.55;;
52180;SDS011;38158;53.338;6.514;2023-02-28T05:01:13;14.13;;;8.55;;
52180;SDS011;38158;53.338;6.514;2023-02-28T05:03:46;13.90;;;8.35;;
52180;SDS011;38158;53.338;6.514;2023-02-28T05:06:13;14.15;;;9.05;;
52180;SDS011;38158;53.338;6.514;2023-02-28T05:08:39;14.05;;;8.95;;
52180;SDS011;38158;53.338;6.514;2023-02-28T05:14:03;13.45;;;8.73;;
52180;SDS011;38158;53.338;6.514;2023-02-28T05:16:31;12.98;;;8.90;;
52180;SDS011;38158;53.338;6.514;2023-02-28T05:18:57;14.23;;;9.17;;
52180;SDS011;38158;53.338;6.514;2023-02-28T05:21:31;15.00;;;9.05;;
52180;SDS011;38158;53.338;6.514;2023-02-28T05:23:58;17.85;;;9.50;;
52180;SDS011;38158;53.338;6.514;2023-02-28T05:26:26;16.00;;;8.23;;
52180;SDS011;38158;53.338;6.514;2023-02-28T05:28:52;12.70;;;8.15;;
52180;SDS011;38158;53.338;6.514;2023-02-28T05:31:19;12.27;;;8.00;;
52180;SDS011;38158;53.338;6.514;2023-02-28T05:33:45;12.55;;;8.23;;
52180;SDS011;38158;53.338;6.514;2023-02-28T05:36:11;13.27;;;8.95;;
52180;SDS011;38158;53.338;6.514;2023-02-28T05:38:37;12.15;;;8.30;;
52180;SDS011;38158;53.338;6.514;2023-02-28T05:41:06;12.88;;;8.80;;
52180;SDS011;38158;53.338;6.514;2023-02-28T05:43:33;12.10;;;7.97;;
52180;SDS011;38158;53.338;6.514;2023-02-28T05:46:01;11.20;;;7.63;;
52180;SDS011;38158;53.338;6.514;2023-02-28T05:48:31;13.05;;;8.10;;
52180;SDS011;38158;53.338;6.514;2023-02-28T05:50:58;12.02;;;6.72;;
52180;SDS011;38158;53.338;6.514;2023-02-28T05:53:24;11.85;;;6.82;;
52180;SDS011;38158;53.338;6.514;2023-02-28T05:55:49;10.02;;;6.45;;
52180;SDS011;38158;53.338;6.514;2023-02-28T05:58:15;7.70;;;5.57;;
52180;SDS011;38158;53.338;6.514;2023-02-28T06:00:40;13.32;;;5.82;;
52180;SDS011;38158;53.338;6.514;2023-02-28T06:03:06;8.70;;;5.45;;
52180;SDS011;38158;53.338;6.514;2023-02-28T06:05:32;10.68;;;6.55;;
52180;SDS011;38158;53.338;6.514;2023-02-28T06:07:58;12.05;;;6.50;;
52180;SDS011;38158;53.338;6.514;2023-02-28T06:10:23;11.55;;;7.05;;
52180;SDS011;38158;53.338;6.514;2023-02-28T06:12:49;10.45;;;6.80;;
52180;SDS011;38158;53.338;6.514;2023-02-28T06:15:15;14.70;;;7.35;;
52180;SDS011;38158;53.338;6.514;2023-02-28T06:17:42;13.20;;;6.90;;
52180;SDS011;38158;53.338;6.514;2023-02-28T06:20:08;13.95;;;6.75;;
52180;SDS011;38158;53.338;6.514;2023-02-28T06:22:35;12.55;;;7.30;;
52180;SDS011;38158;53.338;6.514;2023-02-28T06:25:02;13.00;;;6.95;;
52180;SDS011;38158;53.338;6.514;2023-02-28T06:29:55;11.45;;;6.95;;
52180;SDS011;38158;53.338;6.514;2023-02-28T06:32:21;11.50;;;7.10;;
52180;SDS011;38158;53.338;6.514;2023-02-28T06:34:47;12.00;;;7.15;;
52180;SDS011;38158;53.338;6.514;2023-02-28T06:37:13;15.95;;;8.07;;
52180;SDS011;38158;53.338;6.514;2023-02-28T06:39:39;11.55;;;7.72;;
52180;SDS011;38158;53.338;6.514;2023-02-28T06:42:05;13.10;;;8.32;;
52180;SDS011;38158;53.338;6.514;2023-02-28T06:44:30;15.63;;;8.18;;
52180;SDS011;38158;53.338;6.514;2023-02-28T06:47:00;13.60;;;8.32;;
52180;SDS011;38158;53.338;6.514;2023-02-28T06:49:30;17.38;;;8.35;;
52180;SDS011;38158;53.338;6.514;2023-02-28T06:51:57;17.17;;;8.70;;
52180;SDS011;38158;53.338;6.514;2023-02-28T06:54:23;13.18;;;9.13;;
52180;SDS011;38158;53.338;6.514;2023-02-28T06:56:49;14.35;;;9.68;;
52180;SDS011;38158;53.338;6.514;2023-02-28T06:59:15;16.40;;;9.70;;
52180;SDS011;38158;53.338;6.514;2023-02-28T07:01:41;15.05;;;9.98;;
52180;SDS011;38158;53.338;6.514;2023-02-28T07:04:08;15.82;;;9.60;;
52180;SDS011;38158;53.338;6.514;2023-02-28T07:06:33;16.02;;;10.05;;
52180;SDS011;38158;53.338;6.514;2023-02-28T07:08:59;17.60;;;10.05;;
52180;SDS011;38158;53.338;6.514;2023-02-28T07:11:26;17.15;;;10.13;;
52180;SDS011;38158;53.338;6.514;2023-02-28T07:13:53;14.90;;;10.00;;
52180;SDS011;38158;53.338;6.514;2023-02-28T07:16:20;18.80;;;10.65;;
52180;SDS011;38158;53.338;6.514;2023-02-28T07:18:46;17.13;;;11.07;;
52180;SDS011;38158;53.338;6.514;2023-02-28T07:21:12;14.93;;;9.95;;
52180;SDS011;38158;53.338;6.514;2023-02-28T07:23:38;17.92;;;10.55;;
52180;SDS011;38158;53.338;6.514;2023-02-28T07:26:05;18.70;;;10.90;;
52180;SDS011;38158;53.338;6.514;2023-02-28T07:28:32;17.48;;;11.35;;
52180;SDS011;38158;53.338;6.514;2023-02-28T07:31:02;14.85;;;10.15;;
52180;SDS011;38158;53.338;6.514;2023-02-28T07:33:30;14.13;;;9.02;;
52180;SDS011;38158;53.338;6.514;2023-02-28T07:36:05;14.30;;;9.70;;
52180;SDS011;38158;53.338;6.514;2023-02-28T07:38:36;12.63;;;8.13;;
52180;SDS011;38158;53.338;6.514;2023-02-28T07:41:02;15.50;;;8.85;;
52180;SDS011;38158;53.338;6.514;2023-02-28T07:43:31;14.68;;;8.98;;
52180;SDS011;38158;53.338;6.514;2023-02-28T07:46:08;16.73;;;10.20;;
52180;SDS011;38158;53.338;6.514;2023-02-28T07:48:36;15.30;;;10.23;;
52180;SDS011;38158;53.338;6.514;2023-02-28T07:51:02;16.38;;;11.00;;
52180;SDS011;38158;53.338;6.514;2023-02-28T07:53:28;21.37;;;12.57;;
52180;SDS011;38158;53.338;6.514;2023-02-28T07:55:55;21.65;;;12.13;;
52180;SDS011;38158;53.338;6.514;2023-02-28T07:58:21;21.23;;;12.85;;
52180;SDS011;38158;53.338;6.514;2023-02-28T08:00:47;21.08;;;13.00;;
52180;SDS011;38158;53.338;6.514;2023-02-28T08:03:13;20.23;;;13.13;;
52180;SDS011;38158;53.338;6.514;2023-02-28T08:05:39;22.38;;;13.35;;
52180;SDS011;38158;53.338;6.514;2023-02-28T08:08:05;19.77;;;11.80;;
52180;SDS011;38158;53.338;6.514;2023-02-28T08:10:32;23.58;;;13.68;;
52180;SDS011;38158;53.338;6.514;2023-02-28T08:12:58;19.88;;;11.88;;
52180;SDS011;38158;53.338;6.514;2023-02-28T08:15:24;19.55;;;12.13;;
52180;SDS011;38158;53.338;6.514;2023-02-28T08:17:49;22.40;;;12.98;;
52180;SDS011;38158;53.338;6.514;2023-02-28T08:20:15;18.40;;;12.02;;
52180;SDS011;38158;53.338;6.514;2023-02-28T08:22:41;19.85;;;11.65;;
52180;SDS011;38158;53.338;6.514;2023-02-28T08:25:07;17.40;;;11.30;;
52180;SDS011;38158;53.338;6.514;2023-02-28T08:27:34;24.85;;;12.73;;
52180;SDS011;38158;53.338;6.514;2023-02-28T08:30:01;18.17;;;11.85;;
52180;SDS011;38158;53.338;6.514;2023-02-28T08:32:28;20.10;;;11.65;;
52180;SDS011;38158;53.338;6.514;2023-02-28T08:34:53;19.33;;;11.50;;
52180;SDS011;38158;53.338;6.514;2023-02-28T08:37:19;19.80;;;12.23;;
52180;SDS011;38158;53.338;6.514;2023-02-28T08:39:45;17.38;;;11.02;;
52180;SDS011;38158;53.338;6.514;2023-02-28T08:42:11;23.85;;;13.02;;
52180;SDS011;38158;53.338;6.514;2023-02-28T08:44:37;18.92;;;13.07;;
52180;SDS011;38158;53.338;6.514;2023-02-28T08:47:02;18.25;;;12.20;;
52180;SDS011;38158;53.338;6.514;2023-02-28T08:49:28;17.75;;;11.45;;
52180;SDS011;38158;53.338;6.514;2023-02-28T08:51:54;18.58;;;11.13;;
52180;SDS011;38158;53.338;6.514;2023-02-28T08:54:22;17.20;;;11.27;;
52180;SDS011;38158;53.338;6.514;2023-02-28T08:56:48;16.98;;;10.30;;
52180;SDS011;38158;53.338;6.514;2023-02-28T08:59:14;16.10;;;9.90;;
52180;SDS011;38158;53.338;6.514;2023-02-28T09:01:40;19.00;;;10.63;;
52180;SDS011;38158;53.338;6.514;2023-02-28T09:04:08;18.80;;;9.80;;
52180;SDS011;38158;53.338;6.514;2023-02-28T09:06:35;14.43;;;9.55;;
52180;SDS011;38158;53.338;6.514;2023-02-28T09:09:01;16.42;;;8.32;;
52180;SDS011;38158;53.338;6.514;2023-02-28T09:11:29;16.67;;;10.82;;
52180;SDS011;38158;53.338;6.514;2023-02-28T09:13:55;21.75;;;10.82;;
52180;SDS011;38158;53.338;6.514;2023-02-28T09:16:21;14.68;;;9.40;;
52180;SDS011;38158;53.338;6.514;2023-02-28T09:18:47;17.45;;;10.25;;
52180;SDS011;38158;53.338;6.514;2023-02-28T09:21:14;16.13;;;10.18;;
52180;SDS011;38158;53.338;6.514;2023-02-28T09:23:45;16.75;;;10.55;;
52180;SDS011;38158;53.338;6.514;2023-02-28T09:26:16;17.05;;;10.68;;
52180;SDS011;38158;53.338;6.514;2023-02-28T09:28:43;15.65;;;9.57;;
52180;SDS011;38158;53.338;6.514;2023-02-28T09:31:13;17.58;;;10.40;;
52180;SDS011;38158;53.338;6.514;2023-02-28T09:33:48;14.10;;;8.85;;
52180;SDS011;38158;53.338;6.514;2023-02-28T09:36:15;16.90;;;9.27;;
52180;SDS011;38158;53.338;6.514;2023-02-28T09:38:40;14.63;;;7.90;;
52180;SDS011;38158;53.338;6.514;2023-02-28T09:41:14;15.48;;;8.50;;
52180;SDS011;38158;53.338;6.514;2023-02-28T09:44:16;11.35;;;6.88;;
52180;SDS011;38158;53.338;6.514;2023-02-28T09:46:38;13.60;;;8.02;;
52180;SDS011;38158;53.338;6.514;2023-02-28T09:49:11;12.85;;;7.32;;
52180;SDS011;38158;53.338;6.514;2023-02-28T09:54:24;13.15;;;8.18;;
52180;SDS011;38158;53.338;6.514;2023-02-28T09:56:53;14.02;;;7.72;;
52180;SDS011;38158;53.338;6.514;2023-02-28T10:05:11;13.90;;;7.72;;
52180;SDS011;38158;53.338;6.514;2023-02-28T10:13:31;13.55;;;7.43;;
52180;SDS011;38158;53.338;6.514;2023-02-28T10:15:58;16.23;;;7.65;;
52180;SDS011;38158;53.338;6.514;2023-02-28T10:18:44;10.30;;;6.53;;
52180;SDS011;38158;53.338;6.514;2023-02-28T10:21:17;13.23;;;7.55;;
52180;SDS011;38158;53.338;6.514;2023-02-28T10:24:07;13.25;;;7.38;;
52180;SDS011;38158;53.338;6.514;2023-02-28T10:26:56;11.15;;;7.18;;
52180;SDS011;38158;53.338;6.514;2023-02-28T10:29:26;12.43;;;7.28;;
52180;SDS011;38158;53.338;6.514;2023-02-28T10:31:54;15.13;;;7.78;;
52180;SDS011;38158;53.338;6.514;2023-02-28T10:34:20;12.68;;;7.15;;
52180;SDS011;38158;53.338;6.514;2023-02-28T10:36:46;13.93;;;7.20;;
52180;SDS011;38158;53.338;6.514;2023-02-28T10:44:47;11.43;;;6.63;;
52180;SDS011;38158;53.338;6.514;2023-02-28T10:47:16;12.70;;;6.90;;
52180;SDS011;38158;53.338;6.514;2023-02-28T10:49:48;10.45;;;6.55;;
52180;SDS011;38158;53.338;6.514;2023-02-28T10:52:32;10.07;;;5.32;;
52180;SDS011;38158;53.338;6.514;2023-02-28T10:55:14;11.23;;;6.20;;
52180;SDS011;38158;53.338;6.514;2023-02-28T11:00:19;9.77;;;6.03;;
52180;SDS011;38158;53.338;6.514;2023-02-28T11:02:47;10.98;;;5.90;;
52180;SDS011;38158;53.338;6.514;2023-02-28T11:07:53;9.48;;;5.65;;
52180;SDS011;38158;53.338;6.514;2023-02-28T11:10:21;10.38;;;5.70;;
52180;SDS011;38158;53.338;6.514;2023-02-28T11:12:53;9.93;;;5.30;;
52180;SDS011;38158;53.338;6.514;2023-02-28T11:17:55;10.38;;;5.47;;
52180;SDS011;38158;53.338;6.514;2023-02-28T11:20:41;10.07;;;5.72;;
52180;SDS011;38158;53.338;6.514;2023-02-28T11:23:13;9.52;;;5.82;;
52180;SDS011;38158;53.338;6.514;2023-02-28T11:28:54;10.30;;;5.75;;
52180;SDS011;38158;53.338;6.514;2023-02-28T11:36:18;9.80;;;5.68;;
52180;SDS011;38158;53.338;6.514;2023-02-28T11:39:11;12.18;;;6.18;;
52180;SDS011;38158;53.338;6.514;2023-02-28T11:41:41;14.27;;;6.22;;
52180;SDS011;38158;53.338;6.514;2023-02-28T11:52:44;9.13;;;5.35;;
52180;SDS011;38158;53.338;6.514;2023-02-28T12:09:02;10.90;;;5.45;;
52180;SDS011;38158;53.338;6.514;2023-02-28T12:11:40;7.68;;;5.40;;
52180;SDS011;38158;53.338;6.514;2023-02-28T12:28:08;12.00;;;6.53;;
52180;SDS011;38158;53.338;6.514;2023-02-28T12:30:37;9.40;;;5.40;;
52180;SDS011;38158;53.338;6.514;2023-02-28T12:33:09;15.48;;;6.65;;
52180;SDS011;38158;53.338;6.514;2023-02-28T12:38:22;9.32;;;5.88;;
52180;SDS011;38158;53.338;6.514;2023-02-28T12:43:26;12.32;;;6.75;;
52180;SDS011;38158;53.338;6.514;2023-02-28T12:46:00;9.05;;;5.65;;
52180;SDS011;38158;53.338;6.514;2023-02-28T12:48:37;11.00;;;6.03;;
52180;SDS011;38158;53.338;6.514;2023-02-28T12:51:05;18.65;;;6.28;;
52180;SDS011;38158;53.338;6.514;2023-02-28T12:56:23;10.27;;;6.10;;
52180;SDS011;38158;53.338;6.514;2023-02-28T12:58:56;10.48;;;5.95;;
52180;SDS011;38158;53.338;6.514;2023-02-28T13:01:36;11.00;;;6.25;;
52180;SDS011;38158;53.338;6.514;2023-02-28T13:09:23;14.23;;;6.25;;
52180;SDS011;38158;53.338;6.514;2023-02-28T13:11:50;12.82;;;5.90;;
52180;SDS011;38158;53.338;6.514;2023-02-28T13:17:18;9.77;;;5.45;;
52180;SDS011;38158;53.338;6.514;2023-02-28T13:20:01;12.45;;;5.97;;
52180;SDS011;38158;53.338;6.514;2023-02-28T13:22:38;9.55;;;5.78;;
52180;SDS011;38158;53.338;6.514;2023-02-28T13:27:48;10.25;;;5.85;;
52180;SDS011;38158;53.338;6.514;2023-02-28T13:38:47;8.98;;;5.70;;
52180;SDS011;38158;53.338;6.514;2023-02-28T13:44:01;10.35;;;6.03;;
52180;SDS011;38158;53.338;6.514;2023-02-28T13:46:32;10.80;;;5.77;;
52180;SDS011;38158;53.338;6.514;2023-02-28T13:51:44;13.00;;;6.00;;
52180;SDS011;38158;53.338;6.514;2023-02-28T13:59:37;8.85;;;4.88;;
52180;SDS011;38158;53.338;6.514;2023-02-28T14:05:05;20.63;;;6.65;;
52180;SDS011;38158;53.338;6.514;2023-02-28T14:07:45;10.63;;;5.40;;
52180;SDS011;38158;53.338;6.514;2023-02-28T14:10:48;10.67;;;5.60;;
52180;SDS011;38158;53.338;6.514;2023-02-28T14:38:13;13.30;;;8.10;;
52180;SDS011;38158;53.338;6.514;2023-02-28T14:40:55;13.23;;;8.07;;
52180;SDS011;38158;53.338;6.514;2023-02-28T14:43:24;10.90;;;7.18;;
52180;SDS011;38158;53.338;6.514;2023-02-28T14:45:53;16.15;;;7.63;;
52180;SDS011;38158;53.338;6.514;2023-02-28T14:48:24;12.52;;;6.75;;
52180;SDS011;38158;53.338;6.514;2023-02-28T14:50:52;12.70;;;7.13;;
52180;SDS011;38158;53.338;6.514;2023-02-28T14:53:21;10.40;;;6.68;;
52180;SDS011;38158;53.338;6.514;2023-02-28T14:55:49;12.27;;;6.97;;
52180;SDS011;38158;53.338;6.514;2023-02-28T15:00:50;15.10;;;7.50;;
52180;SDS011;38158;53.338;6.514;2023-02-28T15:05:54;11.05;;;7.25;;
52180;SDS011;38158;53.338;6.514;2023-02-28T15:08:22;11.05;;;7.53;;
52180;SDS011;38158;53.338;6.514;2023-02-28T15:10:58;11.20;;;6.95;;
52180;SDS011;38158;53.338;6.514;2023-02-28T15:13:29;13.05;;;7.13;;
52180;SDS011;38158;53.338;6.514;2023-02-28T15:16:06;13.68;;;7.63;;
52180;SDS011;38158;53.338;6.514;2023-02-28T15:21:40;10.15;;;6.90;;
52180;SDS011;38158;53.338;6.514;2023-02-28T15:26:41;13.98;;;7.45;;
52180;SDS011;38158;53.338;6.514;2023-02-28T15:29:12;13.05;;;7.70;;
52180;SDS011;38158;53.338;6.514;2023-02-28T15:31:55;13.18;;;7.68;;
52180;SDS011;38158;53.338;6.514;2023-02-28T15:34:38;12.57;;;7.53;;
52180;SDS011;38158;53.338;6.514;2023-02-28T15:39:51;11.98;;;7.60;;
52180;SDS011;38158;53.338;6.514;2023-02-28T15:42:19;14.15;;;8.18;;
52180;SDS011;38158;53.338;6.514;2023-02-28T15:44:46;13.77;;;7.60;;
52180;SDS011;38158;53.338;6.514;2023-02-28T15:47:22;12.05;;;7.65;;
52180;SDS011;38158;53.338;6.514;2023-02-28T15:52:28;10.00;;;7.32;;
52180;SDS011;38158;53.338;6.514;2023-02-28T15:54:56;12.88;;;7.75;;
52180;SDS011;38158;53.338;6.514;2023-02-28T15:57:27;13.18;;;7.75;;
52180;SDS011;38158;53.338;6.514;2023-02-28T15:59:55;11.05;;;7.47;;
52180;SDS011;38158;53.338;6.514;2023-02-28T16:02:44;13.32;;;7.75;;
52180;SDS011;38158;53.338;6.514;2023-02-28T16:07:35;15.23;;;7.13;;
52180;SDS011;38158;53.338;6.514;2023-02-28T16:10:03;13.00;;;7.32;;
52180;SDS011;38158;53.338;6.514;2023-02-28T16:12:30;13.25;;;7.53;;
52180;SDS011;38158;53.338;6.514;2023-02-28T16:15:02;14.43;;;8.63;;
52180;SDS011;38158;53.338;6.514;2023-02-28T16:17:34;13.88;;;8.88;;
52180;SDS011;38158;53.338;6.514;2023-02-28T16:20:05;16.55;;;9.15;;
52180;SDS011;38158;53.338;6.514;2023-02-28T16:22:39;15.38;;;7.80;;
52180;SDS011;38158;53.338;6.514;2023-02-28T16:25:08;13.30;;;7.95;;
52180;SDS011;38158;53.338;6.514;2023-02-28T16:27:41;21.52;;;10.18;;
52180;SDS011;38158;53.338;6.514;2023-02-28T16:30:09;14.57;;;10.07;;
52180;SDS011;38158;53.338;6.514;2023-02-28T16:32:51;19.52;;;12.25;;
52180;SDS011;38158;53.338;6.514;2023-02-28T16:35:19;19.45;;;8.23;;
52180;SDS011;38158;53.338;6.514;2023-02-28T16:37:45;12.77;;;8.32;;
52180;SDS011;38158;53.338;6.514;2023-02-28T16:40:16;12.90;;;7.90;;
52180;SDS011;38158;53.338;6.514;2023-02-28T16:42:43;13.32;;;8.35;;
52180;SDS011;38158;53.338;6.514;2023-02-28T16:45:15;11.00;;;7.30;;
52180;SDS011;38158;53.338;6.514;2023-02-28T16:47:44;12.65;;;8.25;;
52180;SDS011;38158;53.338;6.514;2023-02-28T16:50:29;13.95;;;6.97;;
52180;SDS011;38158;53.338;6.514;2023-02-28T16:52:57;13.27;;;8.25;;
52180;SDS011;38158;53.338;6.514;2023-02-28T16:55:23;14.30;;;8.48;;
52180;SDS011;38158;53.338;6.514;2023-02-28T16:57:54;15.35;;;8.65;;
52180;SDS011;38158;53.338;6.514;2023-02-28T17:00:21;12.68;;;8.13;;
52180;SDS011;38158;53.338;6.514;2023-02-28T17:02:48;17.70;;;9.10;;
52180;SDS011;38158;53.338;6.514;2023-02-28T17:05:14;12.38;;;7.38;;
52180;SDS011;38158;53.338;6.514;2023-02-28T17:07:41;11.82;;;8.02;;
52180;SDS011;38158;53.338;6.514;2023-02-28T17:10:12;11.20;;;7.65;;
52180;SDS011;38158;53.338;6.514;2023-02-28T17:12:46;11.05;;;7.35;;
52180;SDS011;38158;53.338;6.514;2023-02-28T17:15:12;14.57;;;8.23;;
52180;SDS011;38158;53.338;6.514;2023-02-28T17:17:40;13.02;;;7.65;;
52180;SDS011;38158;53.338;6.514;2023-02-28T17:20:09;21.13;;;11.13;;
52180;SDS011;38158;53.338;6.514;2023-02-28T17:22:40;18.13;;;10.63;;
52180;SDS011;38158;53.338;6.514;2023-02-28T17:25:07;13.85;;;8.73;;
52180;SDS011;38158;53.338;6.514;2023-02-28T17:29:59;13.73;;;7.32;;
52180;SDS011;38158;53.338;6.514;2023-02-28T17:32:26;14.15;;;8.45;;
52180;SDS011;38158;53.338;6.514;2023-02-28T17:34:52;13.25;;;7.80;;
52180;SDS011;38158;53.338;6.514;2023-02-28T17:37:18;18.05;;;8.32;;
52180;SDS011;38158;53.338;6.514;2023-02-28T17:39:44;11.90;;;7.13;;
52180;SDS011;38158;53.338;6.514;2023-02-28T17:42:10;15.85;;;7.95;;
52180;SDS011;38158;53.338;6.514;2023-02-28T17:44:36;13.38;;;8.35;;
52180;SDS011;38158;53.338;6.514;2023-02-28T17:47:02;12.85;;;7.95;;
52180;SDS011;38158;53.338;6.514;2023-02-28T17:49:28;11.52;;;7.22;;
52180;SDS011;38158;53.338;6.514;2023-02-28T17:51:54;12.27;;;7.63;;
52180;SDS011;38158;53.338;6.514;2023-02-28T17:54:19;12.82;;;7.45;;
52180;SDS011;38158;53.338;6.514;2023-02-28T17:56:45;13.23;;;7.97;;
52180;SDS011;38158;53.338;6.514;2023-02-28T17:59:11;12.73;;;8.27;;
52180;SDS011;38158;53.338;6.514;2023-02-28T18:01:38;14.87;;;7.37;;
52180;SDS011;38158;53.338;6.514;2023-02-28T18:04:03;13.75;;;8.20;;
52180;SDS011;38158;53.338;6.514;2023-02-28T18:06:43;14.10;;;8.60;;
52180;SDS011;38158;53.338;6.514;2023-02-28T18:09:13;13.93;;;8.80;;
52180;SDS011;38158;53.338;6.514;2023-02-28T18:11:40;14.40;;;8.98;;